TimeAEST,TemperatureF,Dew PointF,Humidity,Sea Level PressureIn,VisibilityMPH,Wind Direction,Wind SpeedMPH,Gust SpeedMPH,PrecipitationIn,Events,Conditions,WindDirDegrees,DateUTC
12:00 AM,70,58,56,30.06,,NE,4.6,,,,,50,2012-10-06 14:00:00
12:00 AM,69.8,57.2,64,30.04,-9999.0,NE,4.6,-,N/A,,Unknown,50,2012-10-06 14:00:00
12:30 AM,69.8,57.2,64,30.04,-9999.0,NE,4.6,-,N/A,,Unknown,40,2012-10-06 14:30:00
1:00 AM,69.8,57.2,64,30.04,-9999.0,NNE,5.8,-,N/A,,Unknown,30,2012-10-06 15:00:00
1:30 AM,69.8,55.4,60,30.01,-9999.0,NE,4.6,-,N/A,,Unknown,40,2012-10-06 15:30:00
2:00 AM,69.8,60.8,73,30.01,-9999.0,Calm,Calm,-,N/A,,Unknown,0,2012-10-06 16:00:00
2:30 AM,68.0,53.6,60,30.01,-9999.0,NW,3.5,-,N/A,,Unknown,320,2012-10-06 16:30:00
3:00 AM,68,52,47,30.01,,WNW,2.3,,,,,300,2012-10-06 17:00:00
3:00 AM,68.0,51.8,56,30.01,-9999.0,WNW,2.3,-,N/A,,Unknown,300,2012-10-06 17:00:00
3:30 AM,68.0,57.2,68,30.01,-9999.0,West,4.6,-,N/A,,Unknown,270,2012-10-06 17:30:00
4:00 AM,68.0,55.4,64,30.01,-9999.0,West,8.1,-,N/A,,Unknown,270,2012-10-06 18:00:00
4:30 AM,68.0,55.4,64,30.01,-9999.0,SW,8.1,-,N/A,,Unknown,220,2012-10-06 18:30:00
5:00 AM,69.8,53.6,56,30.01,-9999.0,SSW,9.2,-,N/A,,Unknown,200,2012-10-06 19:00:00
5:30 AM,68.0,55.4,64,30.01,-9999.0,SW,8.1,-,N/A,,Unknown,230,2012-10-06 19:30:00
6:00 AM,69,55,51,30.03,,SW,6.9,,,,,220,2012-10-06 20:00:00
6:00 AM,68.0,55.4,64,30.04,-9999.0,SW,6.9,-,N/A,,Unknown,220,2012-10-06 20:00:00
6:30 AM,69.8,55.4,60,30.04,-9999.0,SW,4.6,-,N/A,,Unknown,230,2012-10-06 20:30:00
7:00 AM,69.8,55.4,60,30.04,-9999.0,SSW,5.8,-,N/A,,Unknown,210,2012-10-06 21:00:00
7:30 AM,71.6,53.6,53,30.06,-9999.0,South,5.8,-,N/A,,Unknown,190,2012-10-06 21:30:00
8:00 AM,75.2,50.0,41,30.06,-9999.0,SE,6.9,-,N/A,,Unknown,140,2012-10-06 22:00:00
8:30 AM,77.0,51.8,41,30.06,-9999.0,SE,6.9,-,N/A,,Unknown,140,2012-10-06 22:30:00
9:00 AM,77,48,26,30.07,,SE,6.9,,,,,130,2012-10-06 23:00:00
9:00 AM,77.0,48.2,36,30.06,-9999.0,SE,6.9,-,N/A,,Unknown,130,2012-10-06 23:00:00
9:30 AM,75.2,48.2,38,30.06,-9999.0,SE,6.9,-,N/A,,Unknown,130,2012-10-06 23:30:00
10:00 AM,75.2,46.4,36,30.04,-9999.0,SE,6.9,-,N/A,,Unknown,140,2012-10-07 00:00:00
10:30 AM,77.0,51.8,41,30.04,-9999.0,SE,8.1,-,N/A,,Unknown,140,2012-10-07 00:30:00
11:00 AM,77.0,48.2,36,30.01,-9999.0,SE,9.2,-,N/A,,Unknown,140,2012-10-07 01:00:00
11:30 AM,78.8,53.6,42,30.01,-9999.0,SE,9.2,-,N/A,,Unknown,130,2012-10-07 01:30:00
12:00 PM,77,52,31,30.00,,SE,10.4,,,,,130,2012-10-07 02:00:00
12:00 PM,77.0,51.8,41,30.01,-9999.0,SE,10.4,-,N/A,,Unknown,130,2012-10-07 02:00:00
12:30 PM,77.0,51.8,41,29.98,-9999.0,SE,10.4,-,N/A,,Unknown,130,2012-10-07 02:30:00
1:00 PM,77.0,51.8,41,29.95,-9999.0,SE,11.5,-,N/A,,Unknown,130,2012-10-07 03:00:00
1:30 PM,77.0,48.2,36,29.95,-9999.0,ESE,12.7,-,N/A,,Unknown,110,2012-10-07 03:30:00
2:00 PM,77.0,50.0,39,29.92,-9999.0,ESE,13.8,-,N/A,,Unknown,110,2012-10-07 04:00:00
2:30 PM,75.2,53.6,47,29.92,-9999.0,East,13.8,-,N/A,,Unknown,100,2012-10-07 04:30:00
3:00 PM,76,54,37,29.91,,East,13.8,,,,,90,2012-10-07 05:00:00
3:00 PM,77.0,55.4,47,29.89,-9999.0,East,13.8,-,N/A,,Unknown,90,2012-10-07 05:00:00
3:30 PM,77.0,55.4,47,29.89,-9999.0,East,12.7,-,N/A,,Unknown,90,2012-10-07 05:30:00
4:00 PM,77.0,55.4,47,29.89,-9999.0,East,11.5,-,N/A,,Unknown,80,2012-10-07 06:00:00
4:30 PM,78.8,55.4,44,29.89,-9999.0,NNW,6.9,-,N/A,,Unknown,340,2012-10-07 06:30:00
5:00 PM,77.0,57.2,50,29.89,-9999.0,NNW,9.2,-,N/A,,Unknown,330,2012-10-07 07:00:00
5:30 PM,75.2,57.2,53,29.89,-9999.0,NW,9.2,-,N/A,,Unknown,320,2012-10-07 07:30:00
6:00 PM,74,55,42,29.91,,NE,8.1,,,,,40,2012-10-07 08:00:00
6:00 PM,73.4,55.4,53,29.89,-9999.0,NNE,8.1,-,N/A,,Unknown,30,2012-10-07 08:00:00
6:30 PM,71.6,53.6,53,29.92,-9999.0,NNE,6.9,-,N/A,,Unknown,30,2012-10-07 08:30:00
7:00 PM,71.6,55.4,57,29.92,-9999.0,NNE,4.6,-,N/A,,Unknown,30,2012-10-07 09:00:00
7:30 PM,71.6,55.4,57,29.92,-9999.0,North,4.6,-,N/A,,Unknown,360,2012-10-07 09:30:00
8:00 PM,69.8,55.4,60,29.92,-9999.0,Calm,Calm,-,N/A,,Unknown,0,2012-10-07 10:00:00
8:30 PM,69.8,57.2,64,29.95,-9999.0,NW,3.5,-,N/A,,Unknown,310,2012-10-07 10:30:00
9:00 PM,70,57,55,29.94,,NW,4.6,,,,,320,2012-10-07 11:00:00
9:00 PM,69.8,57.2,64,29.95,-9999.0,NW,4.6,-,N/A,,Unknown,320,2012-10-07 11:00:00
9:30 PM,69.8,57.2,64,29.95,-9999.0,NW,3.5,-,N/A,,Unknown,310,2012-10-07 11:30:00
10:00 PM,69.8,57.2,64,29.95,-9999.0,NNW,3.5,-,N/A,,Unknown,330,2012-10-07 12:00:00
10:30 PM,69.8,59.0,68,29.95,-9999.0,Calm,Calm,-,N/A,,Unknown,0,2012-10-07 12:30:00
11:00 PM,69.8,57.2,64,29.95,-9999.0,North,4.6,-,N/A,,Unknown,10,2012-10-07 13:00:00
11:30 PM,68.0,59.0,73,29.92,-9999.0,NW,5.8,-,N/A,,Unknown,320,2012-10-07 13:30:00